createdAt,value
2023-02-22T00:09:21.672Z,9.03
2023-02-22T00:11:48.922Z,7.57
2023-02-22T00:14:15.596Z,7.73
2023-02-22T00:16:42.389Z,7.23
2023-02-22T00:19:09.009Z,7.80
2023-02-22T00:21:35.663Z,7.80
2023-02-22T00:24:02.317Z,7.77
2023-02-22T00:26:33.255Z,8.43
2023-02-22T00:28:59.889Z,8.07
2023-02-22T00:31:26.588Z,7.97
2023-02-22T00:33:53.253Z,8.00
2023-02-22T00:36:20.170Z,7.87
2023-02-22T00:38:46.899Z,8.07
2023-02-22T00:41:15.189Z,7.90
2023-02-22T00:43:42.423Z,8.27
2023-02-22T00:46:09.126Z,8.00
2023-02-22T00:48:35.862Z,8.43
2023-02-22T00:51:02.473Z,8.40
2023-02-22T00:53:30.106Z,9.57
2023-02-22T00:55:56.724Z,9.03
2023-02-22T00:58:23.777Z,8.77
2023-02-22T01:00:50.957Z,8.90
2023-02-22T01:03:19.832Z,9.23
2023-02-22T01:05:47.545Z,9.37
2023-02-22T01:08:15.887Z,9.13
2023-02-22T01:10:43.228Z,9.37
2023-02-22T01:13:10.372Z,9.83
2023-02-22T01:15:39.130Z,9.93
2023-02-22T01:18:06.991Z,9.77
2023-02-22T01:20:33.915Z,8.80
2023-02-22T01:23:02.165Z,9.20
2023-02-22T01:25:31.103Z,9.63
2023-02-22T01:27:59.905Z,9.23
2023-02-22T01:30:32.601Z,9.47
2023-02-22T01:33:00.911Z,8.40
2023-02-22T01:35:30.883Z,8.17
2023-02-22T01:37:58.516Z,8.27
2023-02-22T01:40:31.471Z,8.70
2023-02-22T01:43:01.184Z,8.20
2023-02-22T01:45:30.888Z,7.63
2023-02-22T01:48:02.640Z,7.83
2023-02-22T01:50:32.195Z,7.93
2023-02-22T01:52:59.172Z,8.20
2023-02-22T01:55:26.022Z,8.47
2023-02-22T01:57:52.633Z,8.37
2023-02-22T02:00:20.847Z,7.60
2023-02-22T02:03:02.302Z,8.67
2023-02-22T02:05:31.429Z,8.63
2023-02-22T02:08:01.747Z,7.97
2023-02-22T02:10:28.563Z,9.30
2023-02-22T02:12:57.827Z,8.70
2023-02-22T02:15:32.713Z,9.23
2023-02-22T02:18:02.269Z,9.60
2023-02-22T02:20:48.268Z,8.90
2023-02-22T02:23:30.153Z,8.93
2023-02-22T02:26:34.261Z,9.97
2023-02-22T02:29:31.194Z,9.07
2023-02-22T02:32:10.787Z,10.00
2023-02-22T02:34:58.876Z,10.50
2023-02-22T02:37:44.211Z,10.10
2023-02-22T02:40:26.091Z,9.87
2023-02-22T02:43:06.268Z,10.23
2023-02-22T02:45:47.326Z,9.73
2023-02-22T02:48:17.653Z,9.90
2023-02-22T02:50:47.919Z,9.40
2023-02-22T02:53:20.789Z,10.13
2023-02-22T02:55:47.706Z,10.23
2023-02-22T02:58:20.418Z,10.33
2023-02-22T03:00:49.453Z,10.13
2023-02-22T03:03:18.838Z,10.40
2023-02-22T03:05:55.830Z,10.20
2023-02-22T03:08:31.418Z,9.93
2023-02-22T03:11:06.739Z,10.07
2023-02-22T03:13:48.778Z,11.40
2023-02-22T03:16:20.696Z,10.53
2023-02-22T03:18:58.850Z,11.10
2023-02-22T03:21:29.512Z,11.67
2023-02-22T03:24:26.463Z,11.83
2023-02-22T03:27:11.948Z,11.70
2023-02-22T03:29:45.338Z,11.97
2023-02-22T03:32:20.992Z,11.67
2023-02-22T03:34:55.455Z,12.03
2023-02-22T03:37:30.489Z,11.40
2023-02-22T03:40:00.712Z,11.90
2023-02-22T03:42:36.737Z,11.77
2023-02-22T03:45:08.610Z,12.17
2023-02-22T03:47:43.536Z,11.70
2023-02-22T03:50:18.732Z,12.30
2023-02-22T03:52:46.393Z,11.50
2023-02-22T03:55:19.112Z,11.90
2023-02-22T03:57:54.461Z,12.00
2023-02-22T04:00:24.819Z,11.00
2023-02-22T04:02:51.786Z,11.77
2023-02-22T04:05:20.450Z,11.60
2023-02-22T04:07:47.651Z,11.93
2023-02-22T04:10:16.286Z,11.80
2023-02-22T04:12:43.856Z,12.27
2023-02-22T04:15:14.131Z,12.47
2023-02-22T04:17:41.066Z,13.33
2023-02-22T04:20:10.588Z,13.77
2023-02-22T04:22:44.384Z,14.37
2023-02-22T04:25:12.282Z,14.60
2023-02-22T04:27:39.337Z,13.90
2023-02-22T04:30:06.618Z,14.37
2023-02-22T04:32:35.161Z,15.03
2023-02-22T04:35:02.414Z,16.33
2023-02-22T04:37:29.749Z,13.20
2023-02-22T04:39:56.943Z,14.80
2023-02-22T04:42:23.610Z,12.77
2023-02-22T04:44:50.461Z,13.17
2023-02-22T04:47:17.115Z,13.67
2023-02-22T04:49:43.816Z,12.43
2023-02-22T04:52:10.390Z,14.20
2023-02-22T04:54:38.677Z,13.93
2023-02-22T04:57:06.263Z,12.50
2023-02-22T04:59:33.896Z,13.27
2023-02-22T05:02:01.578Z,13.50
2023-02-22T05:04:28.640Z,11.17
2023-02-22T05:06:55.226Z,13.83
2023-02-22T05:09:22.082Z,11.07
2023-02-22T05:11:48.704Z,10.70
2023-02-22T05:14:15.414Z,10.60
2023-02-22T05:16:42.391Z,11.60
2023-02-22T05:19:09.556Z,9.70
2023-02-22T05:21:36.180Z,9.47
2023-02-22T05:24:03.003Z,13.63
2023-02-22T05:26:29.585Z,10.97
2023-02-22T05:28:56.277Z,8.50
2023-02-22T05:31:23.055Z,9.77
2023-02-22T05:33:49.891Z,10.50
2023-02-22T05:36:16.496Z,9.27
2023-02-22T05:38:43.226Z,9.40
2023-02-22T05:41:11.317Z,9.03
2023-02-22T05:43:39.025Z,9.40
2023-02-22T05:46:05.736Z,9.27
2023-02-22T05:48:32.513Z,8.67
2023-02-22T05:50:59.226Z,8.73
2023-02-22T05:53:26.576Z,9.30
2023-02-22T05:55:53.203Z,9.30
2023-02-22T05:58:19.837Z,9.57
2023-02-22T06:00:46.458Z,9.57
2023-02-22T06:03:13.142Z,8.57
2023-02-22T06:05:41.125Z,8.67
2023-02-22T06:08:08.878Z,8.63
2023-02-22T06:10:36.037Z,9.47
2023-02-22T06:13:03.975Z,8.50
2023-02-22T06:15:30.705Z,7.83
2023-02-22T06:17:57.994Z,7.77
2023-02-22T06:20:26.367Z,7.40
2023-02-22T06:22:55.668Z,7.53
2023-02-22T06:25:26.553Z,6.57
2023-02-22T06:27:53.427Z,7.53
2023-02-22T06:30:23.653Z,7.40
2023-02-22T06:32:50.624Z,6.77
2023-02-22T06:35:17.349Z,7.40
2023-02-22T06:37:44.165Z,7.60
2023-02-22T06:40:12.509Z,6.90
2023-02-22T06:42:39.416Z,6.80
2023-02-22T06:45:06.922Z,6.83
2023-02-22T06:47:33.686Z,6.70
2023-02-22T06:50:00.300Z,7.47
2023-02-22T06:52:26.966Z,8.70
2023-02-22T06:54:53.619Z,9.23
2023-02-22T06:57:20.285Z,9.57
2023-02-22T06:59:46.896Z,10.40
2023-02-22T07:02:14.209Z,7.30
2023-02-22T07:04:43.247Z,6.00
2023-02-22T07:07:10.608Z,7.50
2023-02-22T07:09:37.341Z,8.27
2023-02-22T07:12:04.261Z,6.53
2023-02-22T07:14:30.933Z,7.83
2023-02-22T07:16:57.581Z,6.77
2023-02-22T07:19:24.170Z,5.30
2023-02-22T07:21:51.020Z,5.70
2023-02-22T07:24:17.617Z,4.77
2023-02-22T07:26:44.274Z,4.83
2023-02-22T07:29:11.047Z,5.43
2023-02-22T07:31:38.484Z,4.33
2023-02-22T07:34:05.273Z,5.17
2023-02-22T07:36:31.956Z,4.60
2023-02-22T07:38:58.522Z,4.43
2023-02-22T07:41:25.432Z,4.60
2023-02-22T07:43:52.063Z,5.60
2023-02-22T07:46:18.697Z,4.13
2023-02-22T07:48:45.282Z,5.10
2023-02-22T07:51:15.810Z,5.10
2023-02-22T07:53:42.688Z,5.37
2023-02-22T07:56:09.266Z,5.37
2023-02-22T07:58:36.039Z,4.87
2023-02-22T08:01:04.824Z,5.50
2023-02-22T08:03:35.064Z,5.33
2023-02-22T08:06:02.570Z,5.47
2023-02-22T08:08:30.367Z,5.93
2023-02-22T08:10:57.847Z,6.17
2023-02-22T08:13:25.592Z,5.03
2023-02-22T08:15:55.792Z,4.93
2023-02-22T08:18:23.901Z,4.63
2023-02-22T08:20:52.022Z,4.80
2023-02-22T08:23:21.813Z,5.10
2023-02-22T08:25:48.437Z,4.27
2023-02-22T08:28:17.350Z,4.17
2023-02-22T08:30:43.973Z,4.60
2023-02-22T08:33:13.343Z,4.83
2023-02-22T08:35:40.218Z,4.53
2023-02-22T08:38:08.444Z,4.33
2023-02-22T08:40:36.698Z,4.00
2023-02-22T08:43:04.039Z,3.87
2023-02-22T08:45:30.774Z,4.47
2023-02-22T08:47:58.746Z,4.07
2023-02-22T08:50:28.715Z,4.97
2023-02-22T08:52:57.635Z,4.73
2023-02-22T08:55:26.941Z,4.10
2023-02-22T08:57:53.675Z,4.83
2023-02-22T09:00:21.712Z,4.27
2023-02-22T09:02:48.379Z,4.30
2023-02-22T09:05:15.035Z,4.63
2023-02-22T09:07:42.076Z,4.40
2023-02-22T09:10:13.530Z,4.57
2023-02-22T09:12:40.191Z,4.70
2023-02-22T09:15:07.352Z,5.50
2023-02-22T09:17:34.086Z,4.70
2023-02-22T09:20:00.705Z,4.43
2023-02-22T09:22:27.371Z,4.63
2023-02-22T09:24:53.965Z,4.53
2023-02-22T09:27:20.722Z,5.10
2023-02-22T09:29:50.314Z,5.30
2023-02-22T09:32:17.072Z,4.50
2023-02-22T09:34:44.500Z,5.33
2023-02-22T09:37:12.307Z,4.67
2023-02-22T09:39:39.064Z,4.97
2023-02-22T09:42:36.738Z,5.37
2023-02-22T09:45:13.389Z,5.33
2023-02-22T09:47:43.645Z,5.10
2023-02-22T09:50:14.926Z,4.60
2023-02-22T09:53:20.619Z,5.50
2023-02-22T09:55:51.618Z,5.10
2023-02-22T09:58:24.109Z,5.47
2023-02-22T10:00:57.077Z,5.17
2023-02-22T10:03:36.806Z,5.20
2023-02-22T10:06:13.434Z,5.43
2023-02-22T10:08:41.563Z,5.10
2023-02-22T10:11:45.475Z,5.40
2023-02-22T10:14:53.693Z,5.40
2023-02-22T10:17:38.823Z,5.50
2023-02-22T10:20:14.754Z,5.20
2023-02-22T10:23:07.568Z,5.80
2023-02-22T10:25:37.839Z,6.10
2023-02-22T10:28:21.505Z,5.90
2023-02-22T10:31:01.779Z,5.50
2023-02-22T10:33:36.800Z,5.73
2023-02-22T10:36:03.788Z,6.07
2023-02-22T10:38:33.578Z,5.87
2023-02-22T10:41:23.756Z,5.75
2023-02-22T10:43:50.440Z,5.80
2023-02-22T10:46:21.006Z,5.83
2023-02-22T10:48:53.602Z,5.70
2023-02-22T10:51:20.976Z,5.78
2023-02-22T10:54:14.380Z,6.13
2023-02-22T10:56:52.287Z,5.60
2023-02-22T10:59:27.878Z,5.72
2023-02-22T11:01:54.704Z,5.88
2023-02-22T11:04:22.757Z,5.78
2023-02-22T11:06:57.308Z,5.72
2023-02-22T11:09:24.115Z,5.97
2023-02-22T11:12:08.759Z,6.22
2023-02-22T11:14:35.466Z,6.38
2023-02-22T11:17:07.670Z,6.25
2023-02-22T11:19:34.919Z,6.65
2023-02-22T11:22:19.637Z,6.70
2023-02-22T11:24:57.675Z,6.32
2023-02-22T11:27:34.833Z,6.85
2023-02-22T11:30:16.883Z,6.35
2023-02-22T11:32:49.339Z,6.60
2023-02-22T11:35:27.953Z,6.80
2023-02-22T11:38:20.053Z,6.97
2023-02-22T11:40:47.978Z,6.40
2023-02-22T11:43:17.769Z,6.80
2023-02-22T11:45:59.041Z,6.47
2023-02-22T11:48:30.490Z,7.38
2023-02-22T11:51:09.793Z,7.00
2023-02-22T11:53:57.785Z,6.45
2023-02-22T11:56:38.383Z,6.95
2023-02-22T11:59:15.507Z,6.50
2023-02-22T12:02:16.271Z,6.80
2023-02-22T12:04:53.859Z,6.20
2023-02-22T12:07:29.870Z,6.32
2023-02-22T12:10:04.730Z,5.93
2023-02-22T12:12:43.529Z,6.07
2023-02-22T12:15:37.852Z,6.20
2023-02-22T12:18:07.633Z,6.65
2023-02-22T12:20:45.713Z,6.00
2023-02-22T12:23:12.477Z,6.53
2023-02-22T12:25:46.981Z,7.22
2023-02-22T12:28:25.005Z,6.30
2023-02-22T12:31:04.831Z,6.15
2023-02-22T12:33:43.361Z,6.40
2023-02-22T12:36:15.730Z,6.60
2023-02-22T12:38:48.390Z,6.68
2023-02-22T12:41:25.433Z,6.13
2023-02-22T12:44:19.710Z,5.97
2023-02-22T12:46:52.893Z,5.80
2023-02-22T12:49:30.628Z,5.55
2023-02-22T12:52:34.983Z,6.15
2023-02-22T12:55:11.184Z,5.50
2023-02-22T12:58:00.960Z,5.30
2023-02-22T13:00:39.547Z,5.45
2023-02-22T13:03:15.102Z,5.28
2023-02-22T13:05:41.831Z,5.10
2023-02-22T13:08:21.710Z,5.20
2023-02-22T13:11:27.120Z,5.03
2023-02-22T13:14:12.592Z,4.95
2023-02-22T13:17:10.465Z,5.03
2023-02-22T13:19:59.226Z,4.78
2023-02-22T13:22:44.734Z,4.93
2023-02-22T13:25:28.402Z,5.05
2023-02-22T13:28:13.216Z,5.32
2023-02-22T13:30:44.319Z,4.90
2023-02-22T13:33:34.482Z,5.10
2023-02-22T13:36:31.824Z,5.00
2023-02-22T13:39:27.748Z,5.03
2023-02-22T13:42:09.466Z,5.60
2023-02-22T13:45:00.794Z,4.78
2023-02-22T13:48:06.861Z,4.70
2023-02-22T13:50:48.821Z,4.40
2023-02-22T13:53:28.317Z,4.20
2023-02-22T13:55:59.529Z,4.25
2023-02-22T13:58:27.000Z,4.68
2023-02-22T14:00:59.858Z,4.70
2023-02-22T14:03:40.845Z,4.80
2023-02-22T14:06:10.782Z,4.90
2023-02-22T14:08:41.297Z,4.80
2023-02-22T14:11:15.173Z,4.82
2023-02-22T14:13:55.096Z,4.78
2023-02-22T14:16:26.034Z,4.63
2023-02-22T14:19:19.391Z,5.28
2023-02-22T14:22:01.566Z,4.70
2023-02-22T14:24:44.710Z,4.97
2023-02-22T14:27:12.757Z,5.07
2023-02-22T14:29:51.490Z,4.93
2023-02-22T14:32:18.401Z,4.88
2023-02-22T14:35:26.422Z,5.25
2023-02-22T14:37:59.187Z,5.38
2023-02-22T14:40:33.012Z,5.22
2023-02-22T14:43:20.842Z,5.38
2023-02-22T14:45:52.578Z,5.25
2023-02-22T14:48:25.267Z,5.32
2023-02-22T14:51:11.824Z,5.45
2023-02-22T14:54:02.546Z,5.35
2023-02-22T14:56:42.857Z,5.25
2023-02-22T14:59:15.827Z,5.18
2023-02-22T15:01:55.222Z,5.45
2023-02-22T15:04:28.549Z,5.53
2023-02-22T15:06:56.636Z,5.50
2023-02-22T15:09:29.687Z,5.30
2023-02-22T15:12:03.440Z,5.57
2023-02-22T15:14:33.354Z,5.43
2023-02-22T15:17:03.841Z,5.57
2023-02-22T15:19:33.706Z,5.75
2023-02-22T15:22:02.514Z,5.80
2023-02-22T15:24:34.463Z,5.90
2023-02-22T15:27:12.596Z,5.78
2023-02-22T15:29:41.817Z,5.75
2023-02-22T15:32:31.486Z,6.18
2023-02-22T15:35:17.219Z,5.90
2023-02-22T15:37:46.344Z,5.57
2023-02-22T15:40:19.268Z,5.95
2023-02-22T15:42:49.032Z,6.00
2023-02-22T15:45:18.859Z,6.03
2023-02-22T15:47:46.395Z,5.97
2023-02-22T15:50:17.915Z,6.20
2023-02-22T15:53:28.760Z,5.55
2023-02-22T15:55:59.910Z,6.00
2023-02-22T15:58:28.195Z,6.13
2023-02-22T16:01:02.601Z,5.32
2023-02-22T16:03:36.986Z,5.93
2023-02-22T16:06:10.045Z,6.10
2023-02-22T16:08:54.386Z,6.32
2023-02-22T16:11:34.276Z,7.03
2023-02-22T16:14:24.376Z,6.45
2023-02-22T16:17:29.869Z,6.30
2023-02-22T16:20:01.451Z,6.25
2023-02-22T16:22:34.010Z,6.57
2023-02-22T16:25:18.971Z,6.80
2023-02-22T16:27:48.684Z,6.43
2023-02-22T16:30:24.314Z,5.72
2023-02-22T16:32:54.331Z,6.47
2023-02-22T16:35:21.592Z,6.45
2023-02-22T16:37:50.488Z,6.93
2023-02-22T16:40:24.417Z,6.88
2023-02-22T16:42:51.146Z,7.22
2023-02-22T16:45:20.295Z,6.53
2023-02-22T16:47:48.013Z,7.50
2023-02-22T16:50:14.837Z,7.28
2023-02-22T16:52:41.838Z,7.70
2023-02-22T16:55:14.564Z,7.25
2023-02-22T16:57:41.917Z,7.60
2023-02-22T17:00:15.967Z,7.50
2023-02-22T17:02:42.776Z,7.97
2023-02-22T17:05:14.476Z,7.65
2023-02-22T17:07:41.534Z,7.93
2023-02-22T17:10:15.362Z,8.13
2023-02-22T17:12:45.322Z,7.85
2023-02-22T17:15:28.134Z,8.18
2023-02-22T17:17:56.341Z,7.22
2023-02-22T17:20:23.820Z,7.85
2023-02-22T17:22:51.541Z,8.73
2023-02-22T17:25:23.031Z,8.48
2023-02-22T17:27:49.914Z,8.70
2023-02-22T17:30:17.777Z,8.27
2023-02-22T17:32:44.673Z,8.38
2023-02-22T17:35:11.420Z,9.00
2023-02-22T17:37:38.187Z,9.70
2023-02-22T17:40:05.142Z,9.80
2023-02-22T17:42:31.850Z,9.55
2023-02-22T17:44:58.499Z,9.77
2023-02-22T17:47:25.471Z,8.93
2023-02-22T17:49:52.249Z,9.80
2023-02-22T17:52:18.994Z,9.57
2023-02-22T17:54:45.615Z,9.63
2023-02-22T17:57:12.343Z,10.00
2023-02-22T17:59:41.277Z,10.82
2023-02-22T18:02:08.164Z,11.57
2023-02-22T18:04:34.784Z,12.02
2023-02-22T18:07:01.414Z,15.82
2023-02-22T18:09:28.209Z,13.48
2023-02-22T18:11:55.466Z,13.85
2023-02-22T18:14:22.066Z,13.05
2023-02-22T18:16:48.860Z,12.13
2023-02-22T18:19:15.420Z,10.77
2023-02-22T18:21:42.064Z,7.97
2023-02-22T18:24:08.714Z,5.78
2023-02-22T18:26:35.997Z,3.95
2023-02-22T18:29:02.607Z,3.88
2023-02-22T18:31:30.872Z,4.28
2023-02-22T18:33:57.627Z,3.65
2023-02-22T18:36:25.733Z,3.92
2023-02-22T18:38:54.035Z,4.15
2023-02-22T18:41:23.941Z,4.13
2023-02-22T18:43:50.872Z,4.60
2023-02-22T18:46:21.886Z,3.95
2023-02-22T18:48:58.574Z,4.38
2023-02-22T18:51:26.301Z,4.07
2023-02-22T18:53:55.345Z,3.78
2023-02-22T18:56:22.670Z,4.18
2023-02-22T18:58:58.503Z,4.22
2023-02-22T19:01:26.185Z,4.30
2023-02-22T19:03:53.893Z,3.80
2023-02-22T19:06:20.984Z,4.60
2023-02-22T19:08:48.106Z,5.15
2023-02-22T19:11:20.909Z,4.70
2023-02-22T19:13:49.664Z,5.05
2023-02-22T19:16:22.266Z,5.53
2023-02-22T19:18:50.456Z,4.90
2023-02-22T19:21:25.628Z,4.82
2023-02-22T19:23:52.408Z,4.90
2023-02-22T19:26:22.648Z,4.88
2023-02-22T19:28:51.834Z,4.75
2023-02-22T19:31:21.191Z,5.45
2023-02-22T19:33:49.527Z,6.32
2023-02-22T19:36:16.366Z,6.65
2023-02-22T19:38:46.260Z,6.80
2023-02-22T19:41:16.135Z,6.25
2023-02-22T19:43:50.872Z,6.20
2023-02-22T19:46:18.348Z,6.57
2023-02-22T19:48:45.264Z,5.68
2023-02-22T19:51:13.926Z,5.35
2023-02-22T19:53:43.156Z,5.35
2023-02-22T19:56:13.403Z,4.93
2023-02-22T19:58:43.620Z,4.82
2023-02-22T20:01:14.832Z,4.72
2023-02-22T20:03:41.969Z,4.55
2023-02-22T20:06:10.409Z,4.60
2023-02-22T20:08:38.793Z,5.15
2023-02-22T20:11:06.995Z,4.95
2023-02-22T20:13:33.768Z,4.80
2023-02-22T20:16:00.377Z,7.00
2023-02-22T20:18:27.096Z,6.53
2023-02-22T20:20:54.948Z,5.65
2023-02-22T20:23:21.737Z,4.90
2023-02-22T20:25:55.959Z,5.70
2023-02-22T20:28:23.844Z,5.13
2023-02-22T20:30:51.190Z,5.32
2023-02-22T20:33:19.432Z,5.40
2023-02-22T20:35:46.574Z,5.03
2023-02-22T20:38:14.321Z,4.47
2023-02-22T20:40:41.926Z,4.85
2023-02-22T20:43:08.924Z,5.13
2023-02-22T20:45:37.059Z,4.95
2023-02-22T20:48:03.916Z,4.57
2023-02-22T20:50:30.812Z,5.07
2023-02-22T20:52:57.456Z,4.53
2023-02-22T20:55:24.465Z,4.80
2023-02-22T20:57:51.512Z,5.83
2023-02-22T21:00:18.159Z,5.50
2023-02-22T21:02:45.039Z,5.28
2023-02-22T21:05:11.610Z,5.28
2023-02-22T21:07:38.948Z,5.13
2023-02-22T21:10:06.199Z,5.33
2023-02-22T21:12:34.139Z,5.63
2023-02-22T21:15:00.913Z,6.10
2023-02-22T21:17:28.035Z,5.47
2023-02-22T21:19:56.004Z,5.00
2023-02-22T21:22:23.213Z,5.67
2023-02-22T21:24:51.588Z,6.20
2023-02-22T21:27:18.235Z,5.93
2023-02-22T21:29:45.336Z,5.40
2023-02-22T21:32:12.494Z,5.27
2023-02-22T21:34:39.302Z,5.30
2023-02-22T21:37:07.667Z,5.43
2023-02-22T21:39:34.325Z,5.17
2023-02-22T21:42:01.097Z,5.82
2023-02-22T21:44:28.581Z,7.40
2023-02-22T21:46:56.361Z,6.07
2023-02-22T21:49:23.010Z,5.60
2023-02-22T21:51:51.362Z,5.90
2023-02-22T21:54:20.176Z,6.60
2023-02-22T21:56:47.246Z,6.10
2023-02-22T21:59:16.726Z,6.20
2023-02-22T22:01:45.933Z,6.50
2023-02-22T22:04:15.010Z,6.83
2023-02-22T22:06:41.777Z,6.57
2023-02-22T22:09:08.400Z,6.77
2023-02-22T22:11:35.096Z,6.13
2023-02-22T22:14:01.707Z,5.93
2023-02-22T22:16:29.709Z,5.57
2023-02-22T22:18:56.787Z,5.60
2023-02-22T22:21:24.470Z,6.13
2023-02-22T22:23:53.275Z,6.37
2023-02-22T22:26:23.068Z,6.53
2023-02-22T22:28:52.108Z,6.80
2023-02-22T22:31:21.187Z,6.10
2023-02-22T22:33:48.147Z,6.60
2023-02-22T22:36:16.684Z,6.60
2023-02-22T22:38:44.058Z,6.70
2023-02-22T22:41:11.148Z,6.07
2023-02-22T22:43:37.725Z,6.43
2023-02-22T22:46:06.227Z,6.37
2023-02-22T22:48:36.090Z,6.57
2023-02-22T22:51:06.874Z,6.00
2023-02-22T22:53:34.394Z,5.70
2023-02-22T22:56:02.548Z,5.57
2023-02-22T22:58:32.819Z,5.53
2023-02-22T23:52:47.261Z,7.40
2023-02-22T23:55:16.494Z,6.57
2023-02-22T23:57:43.380Z,6.20
